sensor_id;sensor_type;location;lat;lon;timestamp;P1;durP1;ratioP1;P2;durP2;ratioP2
4182;SDS011;2105;52.300;9.182;2022-09-09T00:01:58;4.07;;;1.23;;
4182;SDS011;2105;52.300;9.182;2022-09-09T00:04:29;4.97;;;1.07;;
4182;SDS011;2105;52.300;9.182;2022-09-09T00:07:02;5.50;;;1.27;;
4182;SDS011;2105;52.300;9.182;2022-09-09T00:09:34;4.37;;;1.20;;
4182;SDS011;2105;52.300;9.182;2022-09-09T00:12:10;4.40;;;1.57;;
4182;SDS011;2105;52.300;9.182;2022-09-09T00:14:42;2.10;;;1.07;;
4182;SDS011;2105;52.300;9.182;2022-09-09T00:17:20;2.40;;;1.27;;
4182;SDS011;2105;52.300;9.182;2022-09-09T00:19:59;4.40;;;1.30;;
4182;SDS011;2105;52.300;9.182;2022-09-09T00:22:31;4.47;;;1.53;;
4182;SDS011;2105;52.300;9.182;2022-09-09T00:25:01;2.93;;;1.20;;
4182;SDS011;2105;52.300;9.182;2022-09-09T00:27:37;5.43;;;1.33;;
4182;SDS011;2105;52.300;9.182;2022-09-09T00:30:16;3.63;;;1.30;;
4182;SDS011;2105;52.300;9.182;2022-09-09T00:32:47;3.00;;;1.10;;
4182;SDS011;2105;52.300;9.182;2022-09-09T00:35:16;2.07;;;1.27;;
4182;SDS011;2105;52.300;9.182;2022-09-09T00:37:50;3.33;;;1.10;;
4182;SDS011;2105;52.300;9.182;2022-09-09T00:40:23;7.43;;;1.60;;
4182;SDS011;2105;52.300;9.182;2022-09-09T00:42:54;3.00;;;1.30;;
4182;SDS011;2105;52.300;9.182;2022-09-09T00:45:39;5.93;;;1.60;;
4182;SDS011;2105;52.300;9.182;2022-09-09T00:48:18;2.03;;;1.07;;
4182;SDS011;2105;52.300;9.182;2022-09-09T00:50:52;6.97;;;1.20;;
4182;SDS011;2105;52.300;9.182;2022-09-09T00:53:26;3.07;;;1.13;;
4182;SDS011;2105;52.300;9.182;2022-09-09T00:56:06;3.13;;;1.10;;
4182;SDS011;2105;52.300;9.182;2022-09-09T00:58:38;5.43;;;1.10;;
4182;SDS011;2105;52.300;9.182;2022-09-09T01:01:08;3.17;;;1.20;;
4182;SDS011;2105;52.300;9.182;2022-09-09T01:03:38;3.60;;;1.30;;
4182;SDS011;2105;52.300;9.182;2022-09-09T01:06:14;4.60;;;1.33;;
4182;SDS011;2105;52.300;9.182;2022-09-09T01:11:43;5.10;;;1.40;;
4182;SDS011;2105;52.300;9.182;2022-09-09T01:14:29;6.80;;;1.47;;
4182;SDS011;2105;52.300;9.182;2022-09-09T01:17:08;6.03;;;1.87;;
4182;SDS011;2105;52.300;9.182;2022-09-09T01:19:45;3.93;;;1.43;;
4182;SDS011;2105;52.300;9.182;2022-09-09T01:22:21;4.70;;;1.40;;
4182;SDS011;2105;52.300;9.182;2022-09-09T01:25:01;4.00;;;1.53;;
4182;SDS011;2105;52.300;9.182;2022-09-09T01:27:40;2.57;;;1.43;;
4182;SDS011;2105;52.300;9.182;2022-09-09T01:30:10;2.90;;;1.23;;
4182;SDS011;2105;52.300;9.182;2022-09-09T01:32:38;6.10;;;1.23;;
4182;SDS011;2105;52.300;9.182;2022-09-09T01:35:07;7.43;;;1.40;;
4182;SDS011;2105;52.300;9.182;2022-09-09T01:37:38;6.27;;;1.27;;
4182;SDS011;2105;52.300;9.182;2022-09-09T01:40:05;4.53;;;1.30;;
4182;SDS011;2105;52.300;9.182;2022-09-09T01:42:33;4.10;;;1.37;;
4182;SDS011;2105;52.300;9.182;2022-09-09T01:45:01;3.37;;;1.20;;
4182;SDS011;2105;52.300;9.182;2022-09-09T01:47:29;3.30;;;1.33;;
4182;SDS011;2105;52.300;9.182;2022-09-09T01:49:55;4.73;;;1.50;;
4182;SDS011;2105;52.300;9.182;2022-09-09T01:52:22;2.60;;;1.27;;
4182;SDS011;2105;52.300;9.182;2022-09-09T01:54:49;3.30;;;1.40;;
4182;SDS011;2105;52.300;9.182;2022-09-09T01:57:17;5.63;;;1.23;;
4182;SDS011;2105;52.300;9.182;2022-09-09T01:59:49;5.43;;;1.20;;
4182;SDS011;2105;52.300;9.182;2022-09-09T02:02:26;4.57;;;1.50;;
4182;SDS011;2105;52.300;9.182;2022-09-09T02:04:58;7.90;;;1.60;;
4182;SDS011;2105;52.300;9.182;2022-09-09T02:07:37;5.10;;;1.70;;
4182;SDS011;2105;52.300;9.182;2022-09-09T02:10:09;2.33;;;1.20;;
4182;SDS011;2105;52.300;9.182;2022-09-09T02:12:39;7.47;;;1.23;;
4182;SDS011;2105;52.300;9.182;2022-09-09T02:15:11;3.37;;;1.30;;
4182;SDS011;2105;52.300;9.182;2022-09-09T02:17:45;3.37;;;1.70;;
4182;SDS011;2105;52.300;9.182;2022-09-09T02:20:15;6.43;;;1.90;;
4182;SDS011;2105;52.300;9.182;2022-09-09T02:22:44;2.90;;;1.53;;
4182;SDS011;2105;52.300;9.182;2022-09-09T02:25:15;3.40;;;1.30;;
4182;SDS011;2105;52.300;9.182;2022-09-09T02:27:45;3.00;;;1.27;;
4182;SDS011;2105;52.300;9.182;2022-09-09T02:30:15;4.43;;;1.37;;
4182;SDS011;2105;52.300;9.182;2022-09-09T02:32:42;2.90;;;1.37;;
4182;SDS011;2105;52.300;9.182;2022-09-09T02:35:13;2.60;;;1.17;;
4182;SDS011;2105;52.300;9.182;2022-09-09T02:37:42;7.33;;;1.60;;
4182;SDS011;2105;52.300;9.182;2022-09-09T02:40:12;2.90;;;1.43;;
4182;SDS011;2105;52.300;9.182;2022-09-09T02:42:40;4.10;;;1.60;;
4182;SDS011;2105;52.300;9.182;2022-09-09T02:45:09;5.53;;;1.90;;
4182;SDS011;2105;52.300;9.182;2022-09-09T02:47:41;4.30;;;1.50;;
4182;SDS011;2105;52.300;9.182;2022-09-09T02:50:15;5.30;;;1.27;;
4182;SDS011;2105;52.300;9.182;2022-09-09T02:52:47;4.00;;;1.47;;
4182;SDS011;2105;52.300;9.182;2022-09-09T02:55:27;5.00;;;1.83;;
4182;SDS011;2105;52.300;9.182;2022-09-09T02:58:02;4.47;;;1.43;;
4182;SDS011;2105;52.300;9.182;2022-09-09T03:00:32;4.20;;;1.80;;
4182;SDS011;2105;52.300;9.182;2022-09-09T03:03:02;3.03;;;1.63;;
4182;SDS011;2105;52.300;9.182;2022-09-09T03:05:29;4.73;;;1.30;;
4182;SDS011;2105;52.300;9.182;2022-09-09T03:07:56;5.80;;;1.43;;
4182;SDS011;2105;52.300;9.182;2022-09-09T03:10:23;7.03;;;1.80;;
4182;SDS011;2105;52.300;9.182;2022-09-09T03:12:50;4.00;;;1.20;;
4182;SDS011;2105;52.300;9.182;2022-09-09T03:15:17;5.70;;;1.20;;
4182;SDS011;2105;52.300;9.182;2022-09-09T03:17:44;4.60;;;1.20;;
4182;SDS011;2105;52.300;9.182;2022-09-09T03:20:12;2.63;;;1.20;;
4182;SDS011;2105;52.300;9.182;2022-09-09T03:22:39;3.73;;;1.00;;
4182;SDS011;2105;52.300;9.182;2022-09-09T03:25:06;3.50;;;1.23;;
4182;SDS011;2105;52.300;9.182;2022-09-09T03:27:33;2.40;;;1.33;;
4182;SDS011;2105;52.300;9.182;2022-09-09T03:30:00;2.47;;;1.10;;
4182;SDS011;2105;52.300;9.182;2022-09-09T03:32:28;2.50;;;1.23;;
4182;SDS011;2105;52.300;9.182;2022-09-09T03:34:56;3.20;;;1.10;;
4182;SDS011;2105;52.300;9.182;2022-09-09T03:37:24;2.50;;;1.20;;
4182;SDS011;2105;52.300;9.182;2022-09-09T03:39:51;2.80;;;1.10;;
4182;SDS011;2105;52.300;9.182;2022-09-09T03:42:19;5.10;;;1.50;;
4182;SDS011;2105;52.300;9.182;2022-09-09T03:44:46;3.83;;;1.20;;
4182;SDS011;2105;52.300;9.182;2022-09-09T03:47:15;5.37;;;1.30;;
4182;SDS011;2105;52.300;9.182;2022-09-09T03:49:42;3.13;;;1.23;;
4182;SDS011;2105;52.300;9.182;2022-09-09T03:52:09;2.57;;;1.40;;
4182;SDS011;2105;52.300;9.182;2022-09-09T03:54:37;5.40;;;1.40;;
4182;SDS011;2105;52.300;9.182;2022-09-09T03:57:04;2.50;;;1.30;;
4182;SDS011;2105;52.300;9.182;2022-09-09T03:59:31;6.20;;;1.60;;
4182;SDS011;2105;52.300;9.182;2022-09-09T04:01:57;5.20;;;1.43;;
4182;SDS011;2105;52.300;9.182;2022-09-09T04:04:24;7.30;;;1.53;;
4182;SDS011;2105;52.300;9.182;2022-09-09T04:06:51;6.20;;;1.70;;
4182;SDS011;2105;52.300;9.182;2022-09-09T04:09:18;5.00;;;1.70;;
4182;SDS011;2105;52.300;9.182;2022-09-09T04:11:46;7.17;;;1.67;;
4182;SDS011;2105;52.300;9.182;2022-09-09T04:14:14;7.30;;;1.43;;
4182;SDS011;2105;52.300;9.182;2022-09-09T04:16:41;5.17;;;1.43;;
4182;SDS011;2105;52.300;9.182;2022-09-09T04:19:09;6.83;;;1.53;;
4182;SDS011;2105;52.300;9.182;2022-09-09T04:21:37;5.53;;;1.43;;
4182;SDS011;2105;52.300;9.182;2022-09-09T04:24:05;5.13;;;1.70;;
4182;SDS011;2105;52.300;9.182;2022-09-09T04:26:32;7.97;;;1.40;;
4182;SDS011;2105;52.300;9.182;2022-09-09T04:29:01;3.90;;;1.40;;
4182;SDS011;2105;52.300;9.182;2022-09-09T04:31:28;5.20;;;2.17;;
4182;SDS011;2105;52.300;9.182;2022-09-09T04:33:54;10.27;;;1.97;;
4182;SDS011;2105;52.300;9.182;2022-09-09T04:36:21;4.87;;;1.77;;
4182;SDS011;2105;52.300;9.182;2022-09-09T04:38:48;5.60;;;1.60;;
4182;SDS011;2105;52.300;9.182;2022-09-09T04:41:15;7.03;;;1.60;;
4182;SDS011;2105;52.300;9.182;2022-09-09T04:43:42;4.20;;;1.33;;
4182;SDS011;2105;52.300;9.182;2022-09-09T04:46:10;8.17;;;1.90;;
4182;SDS011;2105;52.300;9.182;2022-09-09T04:48:37;4.17;;;1.70;;
4182;SDS011;2105;52.300;9.182;2022-09-09T04:51:04;13.23;;;2.13;;
4182;SDS011;2105;52.300;9.182;2022-09-09T04:53:32;10.27;;;2.20;;
4182;SDS011;2105;52.300;9.182;2022-09-09T04:56:04;6.00;;;1.73;;
4182;SDS011;2105;52.300;9.182;2022-09-09T04:58:32;2.40;;;1.50;;
4182;SDS011;2105;52.300;9.182;2022-09-09T05:01:04;5.00;;;1.47;;
4182;SDS011;2105;52.300;9.182;2022-09-09T05:03:33;4.77;;;1.50;;
4182;SDS011;2105;52.300;9.182;2022-09-09T05:06:04;4.73;;;1.70;;
4182;SDS011;2105;52.300;9.182;2022-09-09T05:08:32;3.47;;;1.37;;
4182;SDS011;2105;52.300;9.182;2022-09-09T05:10:58;4.50;;;1.60;;
4182;SDS011;2105;52.300;9.182;2022-09-09T05:13:25;4.03;;;1.77;;
4182;SDS011;2105;52.300;9.182;2022-09-09T05:15:52;3.97;;;1.60;;
4182;SDS011;2105;52.300;9.182;2022-09-09T05:18:19;2.23;;;1.53;;
4182;SDS011;2105;52.300;9.182;2022-09-09T05:20:48;3.17;;;1.90;;
4182;SDS011;2105;52.300;9.182;2022-09-09T05:23:16;6.33;;;1.73;;
4182;SDS011;2105;52.300;9.182;2022-09-09T05:25:42;2.70;;;1.30;;
4182;SDS011;2105;52.300;9.182;2022-09-09T05:28:11;5.87;;;2.07;;
4182;SDS011;2105;52.300;9.182;2022-09-09T05:30:38;2.33;;;1.43;;
4182;SDS011;2105;52.300;9.182;2022-09-09T05:33:04;6.13;;;1.40;;
4182;SDS011;2105;52.300;9.182;2022-09-09T05:35:32;3.20;;;1.63;;
4182;SDS011;2105;52.300;9.182;2022-09-09T05:38:00;4.73;;;1.80;;
4182;SDS011;2105;52.300;9.182;2022-09-09T05:40:27;12.30;;;2.60;;
4182;SDS011;2105;52.300;9.182;2022-09-09T05:42:54;4.17;;;1.50;;
4182;SDS011;2105;52.300;9.182;2022-09-09T05:45:20;2.13;;;1.40;;
4182;SDS011;2105;52.300;9.182;2022-09-09T05:47:51;4.10;;;1.50;;
4182;SDS011;2105;52.300;9.182;2022-09-09T05:50:19;3.33;;;1.50;;
4182;SDS011;2105;52.300;9.182;2022-09-09T05:52:45;4.27;;;1.40;;
4182;SDS011;2105;52.300;9.182;2022-09-09T05:55:15;3.10;;;1.37;;
4182;SDS011;2105;52.300;9.182;2022-09-09T05:57:42;5.83;;;1.70;;
4182;SDS011;2105;52.300;9.182;2022-09-09T06:00:14;2.20;;;1.30;;
4182;SDS011;2105;52.300;9.182;2022-09-09T06:02:41;6.00;;;1.70;;
4182;SDS011;2105;52.300;9.182;2022-09-09T06:05:08;6.63;;;2.03;;
4182;SDS011;2105;52.300;9.182;2022-09-09T06:07:35;5.13;;;1.80;;
4182;SDS011;2105;52.300;9.182;2022-09-09T06:10:03;6.47;;;2.40;;
4182;SDS011;2105;52.300;9.182;2022-09-09T06:12:31;4.10;;;1.83;;
4182;SDS011;2105;52.300;9.182;2022-09-09T06:14:58;8.33;;;1.70;;
4182;SDS011;2105;52.300;9.182;2022-09-09T06:17:25;4.90;;;1.73;;
4182;SDS011;2105;52.300;9.182;2022-09-09T06:19:51;6.00;;;2.20;;
4182;SDS011;2105;52.300;9.182;2022-09-09T06:22:18;3.20;;;1.70;;
4182;SDS011;2105;52.300;9.182;2022-09-09T06:24:45;6.37;;;1.80;;
4182;SDS011;2105;52.300;9.182;2022-09-09T06:27:12;4.37;;;1.83;;
4182;SDS011;2105;52.300;9.182;2022-09-09T06:29:42;5.20;;;2.07;;
4182;SDS011;2105;52.300;9.182;2022-09-09T06:32:09;7.13;;;2.67;;
4182;SDS011;2105;52.300;9.182;2022-09-09T06:34:36;4.27;;;2.50;;
4182;SDS011;2105;52.300;9.182;2022-09-09T06:37:03;5.67;;;2.40;;
4182;SDS011;2105;52.300;9.182;2022-09-09T06:39:31;4.43;;;2.00;;
4182;SDS011;2105;52.300;9.182;2022-09-09T06:41:58;4.40;;;2.00;;
4182;SDS011;2105;52.300;9.182;2022-09-09T06:44:25;6.63;;;2.10;;
4182;SDS011;2105;52.300;9.182;2022-09-09T06:46:53;9.30;;;2.37;;
4182;SDS011;2105;52.300;9.182;2022-09-09T06:49:19;3.60;;;2.40;;
4182;SDS011;2105;52.300;9.182;2022-09-09T06:51:46;5.73;;;2.40;;
4182;SDS011;2105;52.300;9.182;2022-09-09T06:54:14;5.07;;;1.60;;
4182;SDS011;2105;52.300;9.182;2022-09-09T06:56:41;5.47;;;1.90;;
4182;SDS011;2105;52.300;9.182;2022-09-09T06:59:08;5.23;;;1.50;;
4182;SDS011;2105;52.300;9.182;2022-09-09T07:01:37;4.43;;;1.50;;
4182;SDS011;2105;52.300;9.182;2022-09-09T07:04:07;5.27;;;1.80;;
4182;SDS011;2105;52.300;9.182;2022-09-09T07:06:36;4.70;;;1.70;;
4182;SDS011;2105;52.300;9.182;2022-09-09T07:09:05;5.17;;;1.77;;
4182;SDS011;2105;52.300;9.182;2022-09-09T07:11:36;6.80;;;1.60;;
4182;SDS011;2105;52.300;9.182;2022-09-09T07:14:05;3.13;;;1.60;;
4182;SDS011;2105;52.300;9.182;2022-09-09T07:16:32;4.30;;;1.60;;
4182;SDS011;2105;52.300;9.182;2022-09-09T07:19:00;7.70;;;1.63;;
4182;SDS011;2105;52.300;9.182;2022-09-09T07:21:29;3.47;;;1.40;;
4182;SDS011;2105;52.300;9.182;2022-09-09T07:23:57;4.87;;;2.20;;
4182;SDS011;2105;52.300;9.182;2022-09-09T07:26:25;4.03;;;1.50;;
4182;SDS011;2105;52.300;9.182;2022-09-09T07:28:53;2.40;;;1.40;;
4182;SDS011;2105;52.300;9.182;2022-09-09T07:31:21;4.37;;;1.70;;
4182;SDS011;2105;52.300;9.182;2022-09-09T07:33:50;4.20;;;1.50;;
4182;SDS011;2105;52.300;9.182;2022-09-09T07:36:17;4.73;;;1.80;;
4182;SDS011;2105;52.300;9.182;2022-09-09T07:38:49;6.67;;;1.50;;
4182;SDS011;2105;52.300;9.182;2022-09-09T07:41:18;4.73;;;1.50;;
4182;SDS011;2105;52.300;9.182;2022-09-09T07:43:47;5.70;;;1.70;;
4182;SDS011;2105;52.300;9.182;2022-09-09T07:46:16;4.13;;;1.90;;
4182;SDS011;2105;52.300;9.182;2022-09-09T07:48:44;4.03;;;1.73;;
4182;SDS011;2105;52.300;9.182;2022-09-09T07:51:12;4.67;;;1.60;;
4182;SDS011;2105;52.300;9.182;2022-09-09T07:53:41;5.67;;;1.70;;
4182;SDS011;2105;52.300;9.182;2022-09-09T07:56:10;5.87;;;1.50;;
4182;SDS011;2105;52.300;9.182;2022-09-09T07:58:39;4.37;;;1.70;;
4182;SDS011;2105;52.300;9.182;2022-09-09T08:01:07;5.80;;;2.07;;
4182;SDS011;2105;52.300;9.182;2022-09-09T08:03:35;5.33;;;1.60;;
4182;SDS011;2105;52.300;9.182;2022-09-09T08:06:02;6.93;;;2.17;;
4182;SDS011;2105;52.300;9.182;2022-09-09T08:08:31;2.80;;;1.60;;
4182;SDS011;2105;52.300;9.182;2022-09-09T08:11:02;5.60;;;1.60;;
4182;SDS011;2105;52.300;9.182;2022-09-09T08:13:33;4.80;;;1.73;;
4182;SDS011;2105;52.300;9.182;2022-09-09T08:16:05;6.70;;;1.80;;
4182;SDS011;2105;52.300;9.182;2022-09-09T08:18:34;10.33;;;2.27;;
4182;SDS011;2105;52.300;9.182;2022-09-09T08:21:07;4.10;;;1.70;;
4182;SDS011;2105;52.300;9.182;2022-09-09T08:23:36;4.47;;;1.70;;
4182;SDS011;2105;52.300;9.182;2022-09-09T08:26:05;6.53;;;2.10;;
4182;SDS011;2105;52.300;9.182;2022-09-09T08:28:35;6.67;;;1.90;;
4182;SDS011;2105;52.300;9.182;2022-09-09T08:31:05;4.93;;;1.40;;
4182;SDS011;2105;52.300;9.182;2022-09-09T08:33:32;10.40;;;1.73;;
4182;SDS011;2105;52.300;9.182;2022-09-09T08:35:59;8.33;;;2.07;;
4182;SDS011;2105;52.300;9.182;2022-09-09T08:38:26;2.07;;;1.40;;
4182;SDS011;2105;52.300;9.182;2022-09-09T08:40:53;4.07;;;1.47;;
4182;SDS011;2105;52.300;9.182;2022-09-09T08:43:28;5.60;;;1.77;;
4182;SDS011;2105;52.300;9.182;2022-09-09T08:45:59;4.70;;;1.30;;
4182;SDS011;2105;52.300;9.182;2022-09-09T08:48:36;5.97;;;2.20;;
4182;SDS011;2105;52.300;9.182;2022-09-09T08:51:13;6.97;;;1.70;;
4182;SDS011;2105;52.300;9.182;2022-09-09T08:53:41;7.90;;;1.83;;
4182;SDS011;2105;52.300;9.182;2022-09-09T08:56:12;7.37;;;2.43;;
4182;SDS011;2105;52.300;9.182;2022-09-09T08:58:44;6.70;;;1.63;;
4182;SDS011;2105;52.300;9.182;2022-09-09T09:01:19;4.77;;;1.40;;
4182;SDS011;2105;52.300;9.182;2022-09-09T09:04:02;10.77;;;2.30;;
4182;SDS011;2105;52.300;9.182;2022-09-09T09:06:38;6.77;;;2.03;;
4182;SDS011;2105;52.300;9.182;2022-09-09T09:09:16;7.03;;;1.30;;
4182;SDS011;2105;52.300;9.182;2022-09-09T09:11:50;7.23;;;1.73;;
4182;SDS011;2105;52.300;9.182;2022-09-09T09:14:20;6.10;;;1.90;;
4182;SDS011;2105;52.300;9.182;2022-09-09T09:16:51;9.33;;;2.53;;
4182;SDS011;2105;52.300;9.182;2022-09-09T09:19:20;4.13;;;1.70;;
4182;SDS011;2105;52.300;9.182;2022-09-09T09:21:48;4.70;;;1.80;;
4182;SDS011;2105;52.300;9.182;2022-09-09T09:24:20;5.33;;;1.60;;
4182;SDS011;2105;52.300;9.182;2022-09-09T09:26:51;4.47;;;1.60;;
4182;SDS011;2105;52.300;9.182;2022-09-09T09:29:19;9.07;;;1.93;;
4182;SDS011;2105;52.300;9.182;2022-09-09T09:31:47;6.93;;;1.87;;
4182;SDS011;2105;52.300;9.182;2022-09-09T09:34:17;9.03;;;1.67;;
4182;SDS011;2105;52.300;9.182;2022-09-09T09:36:44;5.87;;;1.90;;
4182;SDS011;2105;52.300;9.182;2022-09-09T09:39:22;7.47;;;1.73;;
4182;SDS011;2105;52.300;9.182;2022-09-09T09:41:51;9.20;;;2.07;;
4182;SDS011;2105;52.300;9.182;2022-09-09T09:44:22;6.30;;;1.80;;
4182;SDS011;2105;52.300;9.182;2022-09-09T09:46:51;5.53;;;1.90;;
4182;SDS011;2105;52.300;9.182;2022-09-09T09:49:19;9.83;;;1.90;;
4182;SDS011;2105;52.300;9.182;2022-09-09T09:51:45;4.60;;;1.73;;
4182;SDS011;2105;52.300;9.182;2022-09-09T09:54:17;5.90;;;2.20;;
4182;SDS011;2105;52.300;9.182;2022-09-09T09:56:52;8.33;;;2.17;;
4182;SDS011;2105;52.300;9.182;2022-09-09T09:59:20;6.20;;;2.00;;
4182;SDS011;2105;52.300;9.182;2022-09-09T10:01:48;6.00;;;1.80;;
4182;SDS011;2105;52.300;9.182;2022-09-09T10:04:17;10.97;;;2.00;;
4182;SDS011;2105;52.300;9.182;2022-09-09T10:06:48;3.30;;;1.47;;
4182;SDS011;2105;52.300;9.182;2022-09-09T10:09:20;7.43;;;2.57;;
4182;SDS011;2105;52.300;9.182;2022-09-09T10:11:50;5.03;;;1.73;;
4182;SDS011;2105;52.300;9.182;2022-09-09T10:14:24;6.43;;;1.80;;
4182;SDS011;2105;52.300;9.182;2022-09-09T10:17:01;5.67;;;1.83;;
4182;SDS011;2105;52.300;9.182;2022-09-09T10:19:41;3.47;;;1.60;;
4182;SDS011;2105;52.300;9.182;2022-09-09T10:22:20;6.03;;;1.50;;
4182;SDS011;2105;52.300;9.182;2022-09-09T10:25:04;10.00;;;2.23;;
4182;SDS011;2105;52.300;9.182;2022-09-09T10:27:46;5.30;;;1.57;;
4182;SDS011;2105;52.300;9.182;2022-09-09T10:30:22;8.00;;;1.83;;
4182;SDS011;2105;52.300;9.182;2022-09-09T10:32:56;6.10;;;2.37;;
4182;SDS011;2105;52.300;9.182;2022-09-09T10:35:33;10.60;;;2.30;;
4182;SDS011;2105;52.300;9.182;2022-09-09T10:38:10;4.43;;;1.70;;
4182;SDS011;2105;52.300;9.182;2022-09-09T10:40:42;3.83;;;1.40;;
4182;SDS011;2105;52.300;9.182;2022-09-09T10:43:38;4.73;;;1.87;;
4182;SDS011;2105;52.300;9.182;2022-09-09T10:46:31;4.77;;;1.77;;
4182;SDS011;2105;52.300;9.182;2022-09-09T10:49:09;4.63;;;2.27;;
4182;SDS011;2105;52.300;9.182;2022-09-09T10:51:47;7.63;;;3.00;;
4182;SDS011;2105;52.300;9.182;2022-09-09T10:54:27;7.20;;;2.37;;
4182;SDS011;2105;52.300;9.182;2022-09-09T10:57:03;5.20;;;2.20;;
4182;SDS011;2105;52.300;9.182;2022-09-09T10:59:36;3.50;;;2.20;;
4182;SDS011;2105;52.300;9.182;2022-09-09T11:02:10;3.80;;;1.90;;
4182;SDS011;2105;52.300;9.182;2022-09-09T11:04:45;4.67;;;2.27;;
4182;SDS011;2105;52.300;9.182;2022-09-09T11:07:21;5.57;;;2.23;;
4182;SDS011;2105;52.300;9.182;2022-09-09T11:09:53;3.70;;;2.23;;
4182;SDS011;2105;52.300;9.182;2022-09-09T11:12:25;7.63;;;2.10;;
4182;SDS011;2105;52.300;9.182;2022-09-09T11:14:56;3.63;;;1.90;;
4182;SDS011;2105;52.300;9.182;2022-09-09T11:17:26;7.73;;;2.40;;
4182;SDS011;2105;52.300;9.182;2022-09-09T11:19:59;4.57;;;2.00;;
4182;SDS011;2105;52.300;9.182;2022-09-09T11:22:28;3.97;;;1.80;;
4182;SDS011;2105;52.300;9.182;2022-09-09T11:24:59;5.20;;;1.87;;
4182;SDS011;2105;52.300;9.182;2022-09-09T11:27:31;4.13;;;1.70;;
4182;SDS011;2105;52.300;9.182;2022-09-09T11:30:17;4.40;;;1.47;;
4182;SDS011;2105;52.300;9.182;2022-09-09T11:32:53;3.47;;;1.40;;
4182;SDS011;2105;52.300;9.182;2022-09-09T11:35:45;4.40;;;1.57;;
4182;SDS011;2105;52.300;9.182;2022-09-09T11:38:27;7.27;;;1.90;;
4182;SDS011;2105;52.300;9.182;2022-09-09T11:40:55;7.07;;;2.30;;
4182;SDS011;2105;52.300;9.182;2022-09-09T11:43:26;7.87;;;2.40;;
4182;SDS011;2105;52.300;9.182;2022-09-09T11:45:57;6.37;;;2.40;;
4182;SDS011;2105;52.300;9.182;2022-09-09T11:48:29;7.07;;;2.23;;
4182;SDS011;2105;52.300;9.182;2022-09-09T11:51:02;6.40;;;2.70;;
4182;SDS011;2105;52.300;9.182;2022-09-09T11:53:51;8.83;;;3.03;;
4182;SDS011;2105;52.300;9.182;2022-09-09T11:56:25;5.23;;;1.97;;
4182;SDS011;2105;52.300;9.182;2022-09-09T11:59:00;7.30;;;2.30;;
4182;SDS011;2105;52.300;9.182;2022-09-09T12:01:35;6.90;;;2.03;;
4182;SDS011;2105;52.300;9.182;2022-09-09T12:04:10;5.07;;;2.27;;
4182;SDS011;2105;52.300;9.182;2022-09-09T12:06:54;6.10;;;2.00;;
4182;SDS011;2105;52.300;9.182;2022-09-09T12:09:27;3.90;;;2.17;;
4182;SDS011;2105;52.300;9.182;2022-09-09T12:12:07;5.23;;;2.30;;
4182;SDS011;2105;52.300;9.182;2022-09-09T12:14:54;12.63;;;2.13;;
4182;SDS011;2105;52.300;9.182;2022-09-09T12:17:40;6.13;;;2.70;;
4182;SDS011;2105;52.300;9.182;2022-09-09T12:20:11;4.40;;;2.10;;
4182;SDS011;2105;52.300;9.182;2022-09-09T12:22:43;5.13;;;2.13;;
4182;SDS011;2105;52.300;9.182;2022-09-09T12:25:26;7.43;;;2.53;;
4182;SDS011;2105;52.300;9.182;2022-09-09T12:28:04;7.03;;;2.50;;
4182;SDS011;2105;52.300;9.182;2022-09-09T12:30:36;5.10;;;2.13;;
4182;SDS011;2105;52.300;9.182;2022-09-09T12:33:09;4.60;;;1.83;;
4182;SDS011;2105;52.300;9.182;2022-09-09T12:35:37;9.53;;;2.40;;
4182;SDS011;2105;52.300;9.182;2022-09-09T12:38:06;5.17;;;3.17;;
4182;SDS011;2105;52.300;9.182;2022-09-09T12:40:40;5.90;;;2.60;;
4182;SDS011;2105;52.300;9.182;2022-09-09T12:43:16;7.53;;;2.57;;
4182;SDS011;2105;52.300;9.182;2022-09-09T12:45:44;4.43;;;2.50;;
4182;SDS011;2105;52.300;9.182;2022-09-09T12:48:11;6.50;;;2.43;;
4182;SDS011;2105;52.300;9.182;2022-09-09T12:50:44;5.43;;;2.60;;
4182;SDS011;2105;52.300;9.182;2022-09-09T12:53:12;8.27;;;2.30;;
4182;SDS011;2105;52.300;9.182;2022-09-09T12:55:50;5.50;;;1.90;;
4182;SDS011;2105;52.300;9.182;2022-09-09T12:58:18;4.23;;;2.00;;
4182;SDS011;2105;52.300;9.182;2022-09-09T13:00:48;6.30;;;2.97;;
4182;SDS011;2105;52.300;9.182;2022-09-09T13:03:17;12.47;;;3.00;;
4182;SDS011;2105;52.300;9.182;2022-09-09T13:05:46;9.00;;;3.07;;
4182;SDS011;2105;52.300;9.182;2022-09-09T13:08:14;4.10;;;2.90;;
4182;SDS011;2105;52.300;9.182;2022-09-09T13:10:46;7.53;;;3.27;;
4182;SDS011;2105;52.300;9.182;2022-09-09T13:13:16;10.20;;;2.60;;
4182;SDS011;2105;52.300;9.182;2022-09-09T13:15:48;5.60;;;2.60;;
4182;SDS011;2105;52.300;9.182;2022-09-09T13:18:16;4.80;;;2.20;;
4182;SDS011;2105;52.300;9.182;2022-09-09T13:20:47;5.67;;;2.57;;
4182;SDS011;2105;52.300;9.182;2022-09-09T13:23:15;7.43;;;2.57;;
4182;SDS011;2105;52.300;9.182;2022-09-09T13:25:52;9.63;;;2.67;;
4182;SDS011;2105;52.300;9.182;2022-09-09T13:28:21;4.87;;;2.90;;
4182;SDS011;2105;52.300;9.182;2022-09-09T13:30:55;5.73;;;3.20;;
4182;SDS011;2105;52.300;9.182;2022-09-09T13:33:28;4.70;;;3.40;;
4182;SDS011;2105;52.300;9.182;2022-09-09T13:35:57;7.90;;;3.20;;
4182;SDS011;2105;52.300;9.182;2022-09-09T13:38:26;6.37;;;3.90;;
4182;SDS011;2105;52.300;9.182;2022-09-09T13:40:55;5.17;;;4.00;;
4182;SDS011;2105;52.300;9.182;2022-09-09T13:43:27;6.70;;;3.70;;
4182;SDS011;2105;52.300;9.182;2022-09-09T13:45:57;4.87;;;3.13;;
4182;SDS011;2105;52.300;9.182;2022-09-09T13:48:24;4.03;;;3.53;;
4182;SDS011;2105;52.300;9.182;2022-09-09T13:50:59;4.63;;;3.87;;
4182;SDS011;2105;52.300;9.182;2022-09-09T13:53:28;4.00;;;3.50;;
4182;SDS011;2105;52.300;9.182;2022-09-09T13:55:55;5.70;;;4.00;;
4182;SDS011;2105;52.300;9.182;2022-09-09T13:58:23;4.57;;;3.50;;
4182;SDS011;2105;52.300;9.182;2022-09-09T14:00:51;4.20;;;3.60;;
4182;SDS011;2105;52.300;9.182;2022-09-09T14:03:19;5.13;;;3.63;;
4182;SDS011;2105;52.300;9.182;2022-09-09T14:05:46;4.00;;;3.27;;
4182;SDS011;2105;52.300;9.182;2022-09-09T14:08:21;7.53;;;3.70;;
4182;SDS011;2105;52.300;9.182;2022-09-09T14:10:50;7.40;;;3.90;;
4182;SDS011;2105;52.300;9.182;2022-09-09T14:13:20;5.60;;;3.37;;
4182;SDS011;2105;52.300;9.182;2022-09-09T14:15:48;7.50;;;3.50;;
4182;SDS011;2105;52.300;9.182;2022-09-09T14:18:16;5.67;;;3.40;;
4182;SDS011;2105;52.300;9.182;2022-09-09T14:20:43;4.90;;;3.60;;
4182;SDS011;2105;52.300;9.182;2022-09-09T14:23:11;6.70;;;3.10;;
4182;SDS011;2105;52.300;9.182;2022-09-09T14:25:39;5.37;;;2.73;;
4182;SDS011;2105;52.300;9.182;2022-09-09T14:28:08;4.10;;;2.93;;
4182;SDS011;2105;52.300;9.182;2022-09-09T14:30:36;4.80;;;2.90;;
4182;SDS011;2105;52.300;9.182;2022-09-09T14:33:03;4.03;;;3.00;;
4182;SDS011;2105;52.300;9.182;2022-09-09T14:35:31;7.90;;;3.03;;
4182;SDS011;2105;52.300;9.182;2022-09-09T14:37:58;7.87;;;2.47;;
4182;SDS011;2105;52.300;9.182;2022-09-09T14:40:26;5.17;;;2.53;;
4182;SDS011;2105;52.300;9.182;2022-09-09T14:42:53;4.83;;;2.10;;
4182;SDS011;2105;52.300;9.182;2022-09-09T14:45:21;6.83;;;2.40;;
4182;SDS011;2105;52.300;9.182;2022-09-09T14:47:49;7.37;;;2.60;;
4182;SDS011;2105;52.300;9.182;2022-09-09T14:50:16;4.70;;;2.60;;
4182;SDS011;2105;52.300;9.182;2022-09-09T14:52:44;5.63;;;2.70;;
4182;SDS011;2105;52.300;9.182;2022-09-09T14:55:11;4.10;;;2.60;;
4182;SDS011;2105;52.300;9.182;2022-09-09T14:57:38;4.73;;;2.30;;
4182;SDS011;2105;52.300;9.182;2022-09-09T15:00:06;3.47;;;2.73;;
4182;SDS011;2105;52.300;9.182;2022-09-09T15:02:34;7.83;;;2.57;;
4182;SDS011;2105;52.300;9.182;2022-09-09T15:05:00;5.47;;;2.90;;
4182;SDS011;2105;52.300;9.182;2022-09-09T15:07:27;6.33;;;2.73;;
4182;SDS011;2105;52.300;9.182;2022-09-09T15:09:55;2.90;;;2.60;;
4182;SDS011;2105;52.300;9.182;2022-09-09T15:12:22;6.23;;;2.90;;
4182;SDS011;2105;52.300;9.182;2022-09-09T15:14:49;6.60;;;3.20;;
4182;SDS011;2105;52.300;9.182;2022-09-09T15:17:17;7.60;;;2.77;;
4182;SDS011;2105;52.300;9.182;2022-09-09T15:19:43;5.27;;;3.20;;
4182;SDS011;2105;52.300;9.182;2022-09-09T15:22:10;6.20;;;2.90;;
4182;SDS011;2105;52.300;9.182;2022-09-09T15:24:37;6.70;;;3.07;;
4182;SDS011;2105;52.300;9.182;2022-09-09T15:27:05;8.53;;;3.23;;
4182;SDS011;2105;52.300;9.182;2022-09-09T15:29:32;4.80;;;3.20;;
4182;SDS011;2105;52.300;9.182;2022-09-09T15:31:58;4.10;;;3.20;;
4182;SDS011;2105;52.300;9.182;2022-09-09T15:34:25;6.17;;;3.80;;
4182;SDS011;2105;52.300;9.182;2022-09-09T15:36:51;3.50;;;3.20;;
4182;SDS011;2105;52.300;9.182;2022-09-09T15:39:20;5.50;;;3.70;;